Data for 03/20/2014

Time Sea-Level Adjusted Pressure Absolute Pressure Temperature Relative Humidity Dew Point   
(mb) (inHg) (mb) (inHg) (C) (F) (%) (C) (F)
00:05 1013 29.91 842 24.86 2.9 37.2 41 -9.1 15.7
00:10 1013 29.91 842 24.86 2.6 36.8 41 -9.5 15
00:15 1013 29.91 842 24.86 2.6 36.8 40 -9.7 14.5
00:20 1013 29.91 842 24.86 2.8 37.1 40 -9.4 15.2
00:25 1013 29.91 842 24.86 2.7 36.9 41 -9.2 15.4
00:30 1013 29.91 842 24.86 2.7 36.8 41 -9.4 15
00:35 1013 29.91 842 24.86 2.8 37.1 41 -9 15.7
00:40 1013 29.91 842 24.86 2.8 37.1 40 -9.4 15
00:45 1013 29.91 842 24.86 3 37.5 40 -9.4 15
00:50 1013 29.91 842 24.86 3.1 37.7 38 -10 14
00:55 1013 29.91 842 24.86 3.3 37.9 37 -10.2 13.7
01:00 1012 29.88 842 24.86 3.4 38.1 37 -9.8 14.3
01:05 1012 29.88 842 24.86 3.6 38.5 34 -10.7 12.7
01:10 1012 29.88 842 24.86 4 39.3 36 -9.8 14.4
01:15 1012 29.88 841 24.83 3.9 39.1 33 -10.9 12.3
01:20 1012 29.88 841 24.83 4.2 39.6 33 -10.7 12.7
01:25 1012 29.88 841 24.83 4.1 39.4 35 -9.9 14.1
01:30 1012 29.88 841 24.83 4 39.3 33 -10.8 12.5
01:35 1012 29.88 841 24.83 4.3 39.7 35 -9.8 14.3
01:40 1012 29.88 841 24.83 4.1 39.4 37 -9.4 15.1
01:45 1012 29.88 841 24.83 3.9 39.1 34 -10.5 13
01:50 1012 29.88 841 24.83 4 39.2 34 -10.6 13
01:55 1012 29.88 841 24.83 4.1 39.3 34 -10.4 13.2
02:00 1012 29.88 841 24.83 4 39.3 34 -10.5 13
02:05 1012 29.88 841 24.83 4 39.2 36 -9.8 14.3
02:10 1012 29.88 841 24.83 4 39.2 35 -10.1 13.8
02:15 1012 29.88 841 24.83 4 39.3 37 -9.5 14.9
02:20 1012 29.88 841 24.83 3.9 38.9 38 -9.2 15.4
02:25 1011 29.85 841 24.83 3.7 38.7 38 -9.4 15.1
02:30 1011 29.85 841 24.83 3.9 39.1 35 -10 13.9
02:35 1011 29.85 840 24.81 4.3 39.7 33 -10.5 13
02:40 1011 29.85 840 24.81 4.6 40.3 33 -10.5 13.1
02:45 1011 29.85 840 24.81 4.7 40.4 33 -10.4 13.3
02:50 1011 29.85 840 24.81 4.7 40.5 32 -10.5 13.1
02:55 1011 29.85 840 24.81 4.7 40.5 33 -10.3 13.4
03:00 1011 29.85 840 24.81 4.7 40.4 32 -10.5 13
03:05 1011 29.85 840 24.81 4.7 40.5 33 -10.4 13.3
03:10 1011 29.85 840 24.81 4.6 40.2 33 -10.5 13.1
03:15 1011 29.85 840 24.81 4.4 40 34 -10.2 13.6
03:20 1011 29.85 840 24.81 4.4 39.9 32 -10.9 12.3
03:25 1011 29.85 840 24.81 4.6 40.4 32 -10.6 13
03:30 1011 29.85 840 24.81 4.6 40.2 33 -10.4 13.3
03:35 1011 29.85 840 24.81 4.4 39.9 34 -10.3 13.5
03:40 1011 29.85 840 24.81 4.2 39.5 35 -10 14
03:45 1011 29.85 840 24.81 4 39.1 36 -10 14.1
03:50 1011 29.85 840 24.81 3.6 38.6 37 -9.8 14.4
03:55 1011 29.85 840 24.81 3.4 38.1 38 -9.6 14.7
04:00 1011 29.85 840 24.81 3.4 38.1 38 -9.7 14.5
04:05 1011 29.85 840 24.81 3.5 38.2 37 -10 14
04:10 1011 29.85 840 24.81 3.6 38.4 36 -10.1 13.8
04:15 1011 29.85 840 24.81 3.8 38.8 35 -10.5 13.2
04:20 1011 29.85 840 24.81 4 39.3 33 -10.8 12.6
04:25 1011 29.85 840 24.81 4.2 39.6 33 -10.8 12.6
04:30 1011 29.85 840 24.81 4.2 39.5 34 -10.5 13.2
04:35 1011 29.85 840 24.81 4.1 39.3 34 -10.4 13.3
04:40 1011 29.85 840 24.81 4 39.2 33 -10.7 12.7
04:45 1011 29.85 840 24.81 4 39.3 33 -10.8 12.5
04:50 1011 29.85 840 24.81 4.1 39.3 34 -10.3 13.4
04:55 1011 29.85 840 24.81 3.9 39.1 34 -10.7 12.7
05:00 1011 29.85 840 24.81 4.1 39.3 33 -10.9 12.4
05:05 1011 29.85 840 24.81 4 39.2 33 -10.9 12.3
05:10 1011 29.85 840 24.81 3.9 39.1 33 -10.9 12.4
05:15 1011 29.85 840 24.81 3.9 39 34 -10.7 12.7
05:20 1011 29.85 840 24.81 3.7 38.7 34 -10.7 12.7
05:25 1011 29.85 840 24.81 3.7 38.6 33 -11.1 12
05:30 1011 29.85 840 24.81 3.7 38.7 34 -10.9 12.4
05:35 1011 29.85 840 24.81 3.5 38.4 34 -10.9 12.3
05:40 1010 29.83 840 24.81 3.4 38 35 -10.7 12.8
05:45 1010 29.83 840 24.81 3.2 37.7 36 -10.7 12.8
05:50 1010 29.83 840 24.81 3.1 37.6 36 -10.5 13
05:55 1010 29.83 840 24.81 2.9 37.2 37 -10.4 13.2
06:00 1010 29.83 840 24.81 2.7 36.9 37 -10.4 13.2
06:05 1010 29.83 840 24.81 2.8 37.1 37 -10.5 13.1
06:10 1010 29.83 840 24.81 2.9 37.2 37 -10.4 13.2
06:15 1011 29.85 840 24.81 2.9 37.2 37 -10.3 13.4
06:20 1011 29.85 840 24.81 2.7 36.9 40 -9.4 15
06:25 1011 29.85 840 24.81 2.4 36.3 41 -9.4 15
06:30 1011 29.85 840 24.81 2.2 36 42 -9.3 15.3
06:35 1011 29.85 840 24.81 2.1 35.8 44 -9 15.8
06:40 1011 29.85 840 24.81 2 35.6 44 -8.9 15.9
06:45 1011 29.85 840 24.81 1.9 35.4 47 -8.3 17.1
06:50 1011 29.85 840 24.81 1.6 34.9 48 -8.2 17.3
06:55 1011 29.85 840 24.81 1.4 34.5 50 -7.9 17.8
07:00 1011 29.85 840 24.81 1.2 34.2 52 -7.7 18.1
07:05 1011 29.85 841 24.83 1.3 34.3 52 -7.4 18.6
07:10 1011 29.85 841 24.83 1.6 35 52 -7.2 19.1
07:15 1011 29.85 841 24.83 1.5 34.7 54 -6.7 19.9
07:20 1012 29.88 841 24.83 1.5 34.8 55 -6.5 20.3
07:25 1012 29.88 841 24.83 1.9 35.4 55 -6.1 20.9
07:30 1012 29.88 841 24.83 1.4 34.5 57 -6.2 20.9
07:35 1012 29.88 841 24.83 1.3 34.3 58 -6.1 21
07:40 1012 29.88 841 24.83 1.3 34.4 59 -5.9 21.3
07:45 1012 29.88 841 24.83 1.4 34.5 59 -5.7 21.8
07:50 1012 29.88 841 24.83 1.3 34.4 60 -5.7 21.8
07:55 1012 29.88 841 24.83 1.5 34.6 60 -5.4 22.3
08:00 1012 29.88 841 24.83 1.5 34.7 61 -5.2 22.6
08:05 1012 29.88 841 24.83 1.6 34.8 61 -5.1 22.9
08:10 1012 29.88 841 24.83 1.8 35.2 61 -5 23
08:15 1012 29.88 842 24.86 1.9 35.5 61 -4.9 23.2
08:20 1012 29.88 842 24.86 2 35.7 59 -5.1 22.9
08:25 1013 29.91 842 24.86 2.1 35.8 59 -5.1 22.8
08:30 1013 29.91 842 24.86 1.8 35.3 60 -5.2 22.7
08:35 1013 29.91 842 24.86 1.8 35.3 60 -5.2 22.6
08:40 1013 29.91 842 24.86 1.9 35.4 59 -5.3 22.5
08:45 1013 29.91 842 24.86 2 35.6 56 -5.8 21.6
08:50 1013 29.91 842 24.86 2.1 35.8 56 -5.8 21.6
08:55 1013 29.91 842 24.86 2.2 35.9 54 -6.1 21
09:00 1013 29.91 842 24.86 2.1 35.8 55 -6.1 21.1
09:05 1013 29.91 842 24.86 2.1 35.8 54 -6.3 20.6
09:10 1013 29.91 842 24.86 2.2 36 52 -6.6 20.1
09:15 1013 29.91 842 24.86 2.2 35.9 50 -7.2 19.1
09:20 1013 29.91 842 24.86 2.1 35.8 49 -7.5 18.4
09:25 1013 29.91 842 24.86 2.1 35.7 47 -8 17.6
09:30 1013 29.91 842 24.86 1.9 35.4 47 -8.3 17.1
09:35 1013 29.91 842 24.86 1.9 35.4 47 -8.2 17.3
09:40 1013 29.91 842 24.86 1.8 35.3 47 -8.2 17.3
09:45 1013 29.91 842 24.86 1.8 35.2 47 -8.3 17.1
09:50 1013 29.91 842 24.86 1.9 35.3 47 -8.2 17.3
09:55 1013 29.91 842 24.86 1.8 35.2 48 -8 17.6
10:00 1013 29.91 842 24.86 1.5 34.7 49 -8 17.7
10:05 1013 29.91 842 24.86 1.4 34.4 49 -8.1 17.4
10:10 1013 29.91 842 24.86 1.3 34.4 51 -7.7 18.2
10:15 1013 29.91 842 24.86 1.3 34.4 47 -8.8 16.1
10:20 1013 29.91 842 24.86 1.5 34.7 47 -8.6 16.6
10:25 1013 29.91 842 24.86 1.6 35 49 -8 17.6
10:30 1013 29.91 842 24.86 1.5 34.7 48 -8.3 17
10:35 1013 29.91 843 24.89 1.2 34.2 48 -8.6 16.4
10:40 1013 29.91 842 24.86 1.4 34.5 46 -9.1 15.7
10:45 1013 29.91 842 24.86 1.6 34.8 42 -9.9 14.2
10:50 1013 29.91 842 24.86 2 35.6 39 -10.6 13
10:55 1013 29.91 842 24.86 2.3 36.2 39 -10.3 13.4
11:00 1013 29.91 842 24.86 2.4 36.3 37 -10.9 12.4
11:05 1013 29.91 842 24.86 2.6 36.6 37 -10.7 12.7
11:10 1013 29.91 842 24.86 2.9 37.2 37 -10.5 13.1
11:15 1013 29.91 842 24.86 3 37.4 36 -10.6 12.9
11:20 1013 29.91 842 24.86 3 37.4 35 -11.1 11.9
11:25 1012 29.88 842 24.86 3 37.4 32 -12 10.3
11:30 1012 29.88 842 24.86 3.2 37.8 33 -11.4 11.5
11:35 1012 29.88 842 24.86 3.2 37.8 30 -12.9 8.8
11:40 1012 29.88 842 24.86 3.1 37.6 32 -11.9 10.5
11:45 1012 29.88 842 24.86 3 37.3 32 -12.3 9.9
11:50 1013 29.91 842 24.86 2.8 37 31 -12.6 9.2
11:55 1013 29.91 842 24.86 2.6 36.7 31 -13 8.7
12:00 1013 29.91 842 24.86 2.6 36.6 32 -12.4 9.8
12:05 1013 29.91 842 24.86 2.7 36.8 31 -12.8 8.9
12:10 1013 29.91 842 24.86 2.7 36.9 31 -12.9 8.7
12:15 1013 29.91 842 24.86 2.8 37 30 -13.1 8.4
12:20 1013 29.91 842 24.86 3.1 37.5 29 -13.2 8.2
12:25 1013 29.91 842 24.86 3.3 37.9 29 -13.1 8.5
12:30 1013 29.91 842 24.86 3.3 38 28 -13.7 7.3
12:35 1013 29.91 842 24.86 3 37.5 28 -14 6.9
12:40 1013 29.91 842 24.86 3.1 37.5 28 -13.7 7.4
12:45 1013 29.91 842 24.86 3.3 37.9 27 -14 6.8
12:50 1013 29.91 842 24.86 3 37.3 29 -13.5 7.7
12:55 1013 29.91 842 24.86 3.3 38 27 -13.9 6.9
13:00 1013 29.91 842 24.86 3.4 38.1 28 -13.5 7.6
13:05 1013 29.91 842 24.86 3.8 38.9 25 -14.5 5.9
13:10 1013 29.91 843 24.89 4 39.2 26 -13.9 6.9
13:15 1013 29.91 843 24.89 4.3 39.7 26 -13.8 7.1
13:20 1013 29.91 843 24.89 4.4 39.9 26 -13.7 7.3
13:25 1013 29.91 843 24.89 4.1 39.4 24 -14.5 5.9
13:30 1014 29.94 843 24.89 4.2 39.6 25 -14 6.8
13:35 1014 29.94 843 24.89 4.6 40.2 25 -13.8 7.2
13:40 1014 29.94 843 24.89 4.7 40.5 24 -14.3 6.3
13:45 1014 29.94 843 24.89 4.2 39.5 24 -14.6 5.7
13:50 1014 29.94 843 24.89 4.2 39.6 23 -15.2 4.7
13:55 1014 29.94 843 24.89 4 39.3 23 -15.1 4.7
14:00 1014 29.94 843 24.89 4 39.1 22 -15.9 3.3
14:05 1014 29.94 843 24.89 3.9 39 22 -15.9 3.4
14:10 1014 29.94 843 24.89 4 39.2 24 -15.1 4.9
14:15 1014 29.94 843 24.89 3.9 38.9 23 -15.7 3.7
14:20 1014 29.94 843 24.89 3.4 38.2 23 -15.9 3.5
14:25 1014 29.94 843 24.89 3.5 38.2 23 -15.6 3.9
14:30 1014 29.94 843 24.89 3.6 38.5 24 -15.4 4.2
14:35 1014 29.94 843 24.89 4 39.3 24 -14.9 5.2
14:40 1014 29.94 844 24.92 4 39.3 24 -15.1 4.9
14:45 1014 29.94 844 24.92 4 39.2 23 -15.3 4.4
14:50 1014 29.94 844 24.92 3.5 38.3 23 -15.8 3.5
14:55 1014 29.94 844 24.92 3.3 38 23 -15.9 3.5
15:00 1014 29.94 844 24.92 3.3 38 22 -16.4 2.4
15:05 1015 29.97 844 24.92 3.2 37.7 23 -16.3 2.7
15:10 1015 29.97 844 24.92 3.1 37.6 22 -16.7 1.9
15:15 1015 29.97 844 24.92 3.2 37.7 22 -16.6 2.2
15:20 1015 29.97 844 24.92 3.1 37.6 22 -16.7 2
15:25 1015 29.97 844 24.92 3 37.5 23 -16.4 2.4
15:30 1015 29.97 844 24.92 3.2 37.7 22 -16.5 2.3
15:35 1015 29.97 844 24.92 3.2 37.7 22 -16.6 2.1
15:40 1015 29.97 844 24.92 3.1 37.6 21 -17 1.3
15:45 1015 29.97 844 24.92 3.2 37.7 21 -17 1.4
15:50 1015 29.97 844 24.92 3 37.4 22 -16.6 2.1
15:55 1015 29.97 844 24.92 3 37.4 21 -17.3 0.8
16:00 1015 29.97 844 24.92 2.9 37.2 22 -17.1 1.2
16:05 1015 29.97 844 24.92 2.8 37.1 22 -16.7 1.9
16:10 1015 29.97 844 24.92 2.7 36.8 23 -16.7 2
16:15 1015 29.97 844 24.92 2.8 37.1 22 -17.1 1.2
16:20 1015 29.97 844 24.92 2.8 37 21 -17.6 0.4
16:25 1015 29.97 845 24.95 2.5 36.6 22 -17.2 1
16:30 1015 29.97 845 24.95 2.6 36.7 22 -17.2 1.1
16:35 1016 30 845 24.95 2.3 36.1 23 -16.9 1.6
16:40 1016 30 845 24.95 1.8 35.3 24 -16.5 2.3
16:45 1016 30 845 24.95 2 35.5 25 -16.2 2.8
16:50 1016 30 845 24.95 2.1 35.8 25 -16.2 2.8
16:55 1016 30 845 24.95 2.2 35.9 25 -16 3.1
17:00 1016 30 845 24.95 2.1 35.8 24 -16.4 2.5
17:05 1016 30 845 24.95 1.7 35.1 25 -16.2 2.8
17:10 1016 30 845 24.95 1.5 34.6 26 -15.9 3.3
17:15 1016 30 845 24.95 1.4 34.4 27 -16 3.3
17:20 1016 30 845 24.95 1.5 34.8 25 -16.5 2.3
17:25 1016 30 845 24.95 1.6 34.9 26 -16 3.2
17:30 1016 30 846 24.98 1.8 35.3 25 -16.2 2.8
17:35 1016 30 846 24.98 1.7 35.1 25 -16.2 2.8
17:40 1016 30 846 24.98 1.6 34.8 25 -16.3 2.7
17:45 1017 30.03 846 24.98 1.3 34.3 27 -15.8 3.5
17:50 1017 30.03 846 24.98 1 33.8 28 -15.7 3.7
17:55 1017 30.03 846 24.98 0.8 33.5 28 -15.9 3.4
18:00 1017 30.03 846 24.98 0.7 33.3 27 -16.2 2.8
18:05 1017 30.03 846 24.98 0.6 33.2 29 -15.6 3.9
18:10 1017 30.03 846 24.98 0.5 33 28 -16 3.3
18:15 1017 30.03 846 24.98 0.4 32.8 29 -15.7 3.8
18:20 1017 30.03 846 24.98 0.3 32.6 29 -16 3.3
18:25 1017 30.03 846 24.98 0.3 32.5 29 -15.8 3.6
18:30 1017 30.03 846 24.98 0.2 32.4 29 -15.9 3.4
18:35 1017 30.03 846 24.98 0.1 32.1 27 -16.7 1.9
18:40 1017 30.03 847 25.01 -0.1 31.8 29 -16.1 3
18:45 1017 30.03 847 25.01 -0.3 31.5 30 -16.1 3.1
18:50 1018 30.06 847 25.01 -0.4 31.3 31 -15.8 3.6
18:55 1018 30.06 847 25.01 -0.5 31.2 31 -15.5 4
19:00 1018 30.06 847 25.01 -0.5 31.1 31 -15.7 3.8
19:05 1018 30.06 847 25.01 -0.5 31 31 -15.7 3.7
19:10 1018 30.06 847 25.01 -0.6 30.9 31 -15.7 3.8
19:15 1018 30.06 847 25.01 -0.7 30.8 32 -15.4 4.2
19:20 1018 30.06 847 25.01 -0.8 30.6 32 -15.5 4.1
19:25 1018 30.06 847 25.01 -0.9 30.4 33 -15.4 4.3
19:30 1018 30.06 847 25.01 -1 30.3 33 -15.2 4.7
19:35 1018 30.06 847 25.01 -1.1 30 35 -14.9 5.2
19:40 1018 30.06 847 25.01 -1.2 29.8 35 -14.7 5.5
19:45 1018 30.06 847 25.01 -1.3 29.6 36 -14.5 6
19:50 1018 30.06 847 25.01 -1.5 29.4 37 -14.3 6.2
19:55 1018 30.06 848 25.04 -1.6 29.1 39 -13.9 7
20:00 1018 30.06 848 25.04 -1.7 29 39 -13.8 7.2
20:05 1018 30.06 848 25.04 -1.8 28.8 41 -13.3 8.1
20:10 1019 30.09 848 25.04 -2.1 28.2 43 -13 8.7
20:15 1019 30.09 848 25.04 -2.2 28 43 -13.2 8.3
20:20 1019 30.09 848 25.04 -2.2 28.1 42 -13.3 8
20:25 1019 30.09 848 25.04 -2.2 28.1 42 -13.4 7.9
20:30 1019 30.09 848 25.04 -2.2 28.1 42 -13.5 7.8
20:35 1019 30.09 848 25.04 -2.2 28 42 -13.5 7.7
20:40 1019 30.09 848 25.04 -2.2 28 45 -12.6 9.3
20:45 1019 30.09 848 25.04 -3.4 25.9 51 -12.2 10
20:50 1019 30.09 848 25.04 -4.6 23.8 54 -12.6 9.2
20:55 1019 30.09 848 25.04 -4.7 23.5 53 -13 8.6
21:00 1019 30.09 848 25.04 -4.6 23.8 51 -13.2 8.2
21:05 1019 30.09 848 25.04 -4.5 23.9 53 -12.7 9.2
21:10 1019 30.09 848 25.04 -4.6 23.8 54 -12.5 9.6
21:15 1019 30.09 848 25.04 -4 24.8 52 -12.4 9.7
21:20 1019 30.09 849 25.07 -3.6 25.5 51 -12.3 9.9
21:25 1019 30.09 849 25.07 -3.5 25.6 51 -12.4 9.7
21:30 1019 30.09 849 25.07 -3.3 26 51 -12.2 10.1
21:35 1019 30.09 849 25.07 -3.2 26.3 49 -12.3 9.8
21:40 1020 30.12 849 25.07 -3 26.7 49 -12.4 9.8
21:45 1020 30.12 849 25.07 -2.7 27.2 48 -12.1 10.1
21:50 1020 30.12 849 25.07 -2.6 27.3 49 -11.9 10.6
21:55 1020 30.12 849 25.07 -2.7 27.2 50 -11.8 10.7
22:00 1020 30.12 849 25.07 -2.7 27.1 49 -12.1 10.3
22:05 1020 30.12 849 25.07 -2.7 27.2 49 -12 10.4
22:10 1020 30.12 849 25.07 -2.7 27.1 49 -12.1 10.2
22:15 1020 30.12 849 25.07 -2.7 27.1 49 -12 10.4
22:20 1020 30.12 849 25.07 -2.8 27 49 -12 10.3
22:25 1020 30.12 849 25.07 -2.8 27 49 -12 10.3
22:30 1020 30.12 849 25.07 -2.9 26.9 50 -12 10.4
22:35 1020 30.12 849 25.07 -2.9 26.8 50 -11.9 10.7
22:40 1020 30.12 849 25.07 -3.1 26.5 52 -11.7 11
22:45 1020 30.12 849 25.07 -3.1 26.4 53 -11.5 11.3
22:50 1020 30.12 849 25.07 -3.1 26.3 53 -11.3 11.6
22:55 1020 30.12 849 25.07 -3.5 25.8 56 -11.1 12
23:00 1020 30.12 849 25.07 -4 24.8 58 -11.2 11.8
23:05 1020 30.12 849 25.07 -4.2 24.5 58 -11.2 11.8
23:10 1020 30.12 849 25.07 -4.1 24.6 59 -11.1 12
23:15 1020 30.12 849 25.07 -4 24.9 59 -10.9 12.5
23:20 1020 30.12 849 25.07 -4.1 24.6 59 -10.9 12.4
23:25 1020 30.12 849 25.07 -4.3 24.2 59 -11.1 12
23:30 1020 30.12 849 25.07 -4.3 24.3 59 -11.2 11.8
23:35 1020 30.12 849 25.07 -4.1 24.6 58 -11.3 11.7
23:40 1020 30.12 849 25.07 -4 24.8 58 -11.1 12.1
23:45 1020 30.12 850 25.1 -3.9 24.9 56 -11.5 11.4
23:50 1020 30.12 850 25.1 -4.1 24.7 57 -11.3 11.7
23:55 1020 30.12 850 25.1 -4 24.8 58 -11.1 12.1
24:00 1020 30.12 850 25.1 -4 24.9 58 -11 12.2